Silver Creek Plunge, Idaho
Current Conditions -  °F | °C
As of 6:53 AM on Sunday 25 Jan 2015 (Local Time) from KBOI Reporting Station
Haze Haze  
Wind Chill: 22°   Ceiling: Unl
Heat Index: 28°   Visibility: 6mi
Dew Point: 26°   Wind: 6mph
Humidity: 92%   Direction: 170°S
Pressure: 30.43"   Gusts: NA
Location:  44.07°N, 115.488°W
Report Text: KBOI 251353Z 17005KT 6SM BR CLR M02/M03 A3043 RMK AO2 SLP323 T10221033
Loading
Personal Weather Stations






























Interactive Weather Map New forecast layout! Learn more

10-Day Weather Forecast

Advertisements
Track Severe Weather on mobile